sensor_id;sensor_type;location;lat;lon;timestamp;P1;durP1;ratioP1;P2;durP2;ratioP2
13368;SDS011;6753;52.520;13.450;2023-07-30T00:00:10;151.00;;;89.95;;
13368;SDS011;6753;52.520;13.450;2023-07-30T00:00:22;149.48;;;89.50;;
13368;SDS011;6753;52.520;13.450;2023-07-30T00:00:32;151.73;;;90.32;;
13368;SDS011;6753;52.520;13.450;2023-07-30T00:00:44;153.10;;;90.33;;
13368;SDS011;6753;52.520;13.450;2023-07-30T00:00:56;153.50;;;89.82;;
13368;SDS011;6753;52.520;13.450;2023-07-30T00:01:07;150.95;;;90.07;;
13368;SDS011;6753;52.520;13.450;2023-07-30T00:01:18;150.85;;;90.85;;
13368;SDS011;6753;52.520;13.450;2023-07-30T00:01:28;148.90;;;89.38;;
13368;SDS011;6753;52.520;13.450;2023-07-30T00:01:39;147.03;;;88.03;;
13368;SDS011;6753;52.520;13.450;2023-07-30T00:01:50;144.27;;;87.15;;
13368;SDS011;6753;52.520;13.450;2023-07-30T00:02:01;147.38;;;88.45;;
13368;SDS011;6753;52.520;13.450;2023-07-30T00:02:12;149.88;;;89.50;;
13368;SDS011;6753;52.520;13.450;2023-07-30T00:02:22;154.63;;;93.00;;
13368;SDS011;6753;52.520;13.450;2023-07-30T00:02:33;167.18;;;100.30;;
13368;SDS011;6753;52.520;13.450;2023-07-30T00:02:44;174.95;;;104.10;;
13368;SDS011;6753;52.520;13.450;2023-07-30T00:02:56;184.32;;;108.88;;
13368;SDS011;6753;52.520;13.450;2023-07-30T00:03:06;200.30;;;117.07;;
13368;SDS011;6753;52.520;13.450;2023-07-30T00:03:17;223.68;;;133.30;;
13368;SDS011;6753;52.520;13.450;2023-07-30T00:03:28;265.17;;;158.82;;
13368;SDS011;6753;52.520;13.450;2023-07-30T00:03:39;249.05;;;146.40;;
13368;SDS011;6753;52.520;13.450;2023-07-30T00:03:49;252.13;;;146.80;;
13368;SDS011;6753;52.520;13.450;2023-07-30T00:04:00;244.30;;;141.77;;
13368;SDS011;6753;52.520;13.450;2023-07-30T00:04:11;241.95;;;140.02;;
13368;SDS011;6753;52.520;13.450;2023-07-30T00:04:22;314.45;;;175.80;;
13368;SDS011;6753;52.520;13.450;2023-07-30T00:04:33;351.00;;;194.48;;
13368;SDS011;6753;52.520;13.450;2023-07-30T00:04:44;385.63;;;217.18;;
13368;SDS011;6753;52.520;13.450;2023-07-30T00:04:56;393.27;;;219.68;;
13368;SDS011;6753;52.520;13.450;2023-07-30T00:05:07;383.52;;;214.07;;
13368;SDS011;6753;52.520;13.450;2023-07-30T00:05:18;375.70;;;210.05;;
13368;SDS011;6753;52.520;13.450;2023-07-30T00:05:29;372.10;;;207.57;;
13368;SDS011;6753;52.520;13.450;2023-07-30T00:05:40;347.37;;;193.10;;
13368;SDS011;6753;52.520;13.450;2023-07-30T00:05:54;325.30;;;178.55;;
13368;SDS011;6753;52.520;13.450;2023-07-30T00:06:05;307.10;;;171.50;;
13368;SDS011;6753;52.520;13.450;2023-07-30T00:06:16;302.52;;;168.45;;
13368;SDS011;6753;52.520;13.450;2023-07-30T00:06:26;302.58;;;171.02;;
13368;SDS011;6753;52.520;13.450;2023-07-30T00:06:38;303.27;;;172.73;;
13368;SDS011;6753;52.520;13.450;2023-07-30T00:06:49;304.03;;;175.20;;
13368;SDS011;6753;52.520;13.450;2023-07-30T00:07:00;299.92;;;172.48;;
13368;SDS011;6753;52.520;13.450;2023-07-30T00:07:10;298.75;;;170.38;;
13368;SDS011;6753;52.520;13.450;2023-07-30T00:07:22;291.83;;;165.48;;
13368;SDS011;6753;52.520;13.450;2023-07-30T00:07:32;290.05;;;161.82;;
13368;SDS011;6753;52.520;13.450;2023-07-30T00:07:43;282.98;;;157.80;;
13368;SDS011;6753;52.520;13.450;2023-07-30T00:07:54;278.83;;;154.50;;
13368;SDS011;6753;52.520;13.450;2023-07-30T00:08:05;277.92;;;153.50;;
13368;SDS011;6753;52.520;13.450;2023-07-30T00:08:17;273.83;;;152.57;;
13368;SDS011;6753;52.520;13.450;2023-07-30T00:08:28;276.63;;;154.88;;
13368;SDS011;6753;52.520;13.450;2023-07-30T00:08:38;274.80;;;154.77;;
13368;SDS011;6753;52.520;13.450;2023-07-30T00:08:49;276.67;;;156.70;;
13368;SDS011;6753;52.520;13.450;2023-07-30T00:09:00;273.80;;;156.77;;
13368;SDS011;6753;52.520;13.450;2023-07-30T00:09:11;274.15;;;158.57;;
13368;SDS011;6753;52.520;13.450;2023-07-30T00:09:21;279.77;;;161.88;;
13368;SDS011;6753;52.520;13.450;2023-07-30T00:09:32;276.03;;;159.90;;
13368;SDS011;6753;52.520;13.450;2023-07-30T00:09:43;282.27;;;162.82;;
13368;SDS011;6753;52.520;13.450;2023-07-30T00:09:54;347.90;;;200.27;;
13368;SDS011;6753;52.520;13.450;2023-07-30T00:10:05;344.27;;;197.05;;
13368;SDS011;6753;52.520;13.450;2023-07-30T00:10:17;330.17;;;189.15;;
13368;SDS011;6753;52.520;13.450;2023-07-30T00:10:28;307.38;;;176.77;;
13368;SDS011;6753;52.520;13.450;2023-07-30T00:10:39;317.48;;;184.52;;
13368;SDS011;6753;52.520;13.450;2023-07-30T00:10:50;466.83;;;295.27;;
13368;SDS011;6753;52.520;13.450;2023-07-30T00:11:00;443.77;;;267.67;;
13368;SDS011;6753;52.520;13.450;2023-07-30T00:11:11;396.50;;;235.75;;
13368;SDS011;6753;52.520;13.450;2023-07-30T00:11:22;349.95;;;202.80;;
13368;SDS011;6753;52.520;13.450;2023-07-30T00:11:33;347.10;;;198.70;;
13368;SDS011;6753;52.520;13.450;2023-07-30T00:11:45;353.38;;;202.75;;
13368;SDS011;6753;52.520;13.450;2023-07-30T00:11:55;351.08;;;203.45;;
13368;SDS011;6753;52.520;13.450;2023-07-30T00:12:06;349.35;;;204.18;;
13368;SDS011;6753;52.520;13.450;2023-07-30T00:12:18;355.00;;;206.27;;
13368;SDS011;6753;52.520;13.450;2023-07-30T00:12:28;354.65;;;205.95;;
13368;SDS011;6753;52.520;13.450;2023-07-30T00:12:39;353.10;;;206.52;;
13368;SDS011;6753;52.520;13.450;2023-07-30T00:12:51;354.80;;;206.23;;
13368;SDS011;6753;52.520;13.450;2023-07-30T00:13:02;350.60;;;202.88;;
13368;SDS011;6753;52.520;13.450;2023-07-30T00:13:12;345.25;;;199.52;;
13368;SDS011;6753;52.520;13.450;2023-07-30T00:13:23;343.20;;;197.05;;
13368;SDS011;6753;52.520;13.450;2023-07-30T00:13:35;336.85;;;193.55;;
13368;SDS011;6753;52.520;13.450;2023-07-30T00:13:46;330.33;;;189.20;;
13368;SDS011;6753;52.520;13.450;2023-07-30T00:13:57;326.20;;;186.82;;
13368;SDS011;6753;52.520;13.450;2023-07-30T00:14:07;322.08;;;184.07;;
13368;SDS011;6753;52.520;13.450;2023-07-30T00:14:18;315.27;;;181.55;;
13368;SDS011;6753;52.520;13.450;2023-07-30T00:14:29;308.85;;;177.98;;
13368;SDS011;6753;52.520;13.450;2023-07-30T00:14:40;308.93;;;175.93;;
13368;SDS011;6753;52.520;13.450;2023-07-30T00:14:51;307.13;;;174.55;;
13368;SDS011;6753;52.520;13.450;2023-07-30T00:15:01;307.90;;;172.23;;
13368;SDS011;6753;52.520;13.450;2023-07-30T00:15:13;305.23;;;171.35;;
13368;SDS011;6753;52.520;13.450;2023-07-30T00:15:24;301.35;;;169.48;;
13368;SDS011;6753;52.520;13.450;2023-07-30T00:15:35;299.10;;;168.53;;
13368;SDS011;6753;52.520;13.450;2023-07-30T00:15:47;294.45;;;167.10;;
13368;SDS011;6753;52.520;13.450;2023-07-30T00:15:58;291.40;;;165.02;;
13368;SDS011;6753;52.520;13.450;2023-07-30T00:16:09;286.07;;;162.23;;
13368;SDS011;6753;52.520;13.450;2023-07-30T00:16:20;287.33;;;161.25;;
13368;SDS011;6753;52.520;13.450;2023-07-30T00:16:31;284.52;;;159.07;;
13368;SDS011;6753;52.520;13.450;2023-07-30T00:16:41;280.10;;;157.40;;
13368;SDS011;6753;52.520;13.450;2023-07-30T00:16:52;273.07;;;155.60;;
13368;SDS011;6753;52.520;13.450;2023-07-30T00:17:03;271.58;;;154.68;;
13368;SDS011;6753;52.520;13.450;2023-07-30T00:17:15;263.95;;;152.32;;
13368;SDS011;6753;52.520;13.450;2023-07-30T00:17:26;260.92;;;149.75;;
13368;SDS011;6753;52.520;13.450;2023-07-30T00:17:36;263.02;;;150.85;;
13368;SDS011;6753;52.520;13.450;2023-07-30T00:17:47;264.60;;;150.83;;
13368;SDS011;6753;52.520;13.450;2023-07-30T00:17:58;270.35;;;153.90;;
13368;SDS011;6753;52.520;13.450;2023-07-30T00:18:09;270.67;;;153.15;;
13368;SDS011;6753;52.520;13.450;2023-07-30T00:18:20;275.03;;;155.77;;
13368;SDS011;6753;52.520;13.450;2023-07-30T00:18:30;273.00;;;154.98;;
13368;SDS011;6753;52.520;13.450;2023-07-30T00:18:41;266.40;;;152.50;;
13368;SDS011;6753;52.520;13.450;2023-07-30T00:18:53;258.55;;;149.05;;
13368;SDS011;6753;52.520;13.450;2023-07-30T00:19:04;254.57;;;147.97;;
13368;SDS011;6753;52.520;13.450;2023-07-30T00:19:14;253.77;;;147.32;;
13368;SDS011;6753;52.520;13.450;2023-07-30T00:19:25;254.02;;;147.73;;
13368;SDS011;6753;52.520;13.450;2023-07-30T00:19:36;253.30;;;147.38;;
13368;SDS011;6753;52.520;13.450;2023-07-30T00:19:47;253.00;;;147.23;;
13368;SDS011;6753;52.520;13.450;2023-07-30T00:19:57;254.98;;;147.27;;
13368;SDS011;6753;52.520;13.450;2023-07-30T00:20:08;252.18;;;145.25;;
13368;SDS011;6753;52.520;13.450;2023-07-30T00:20:19;251.68;;;143.88;;
13368;SDS011;6753;52.520;13.450;2023-07-30T00:20:30;248.07;;;142.13;;
13368;SDS011;6753;52.520;13.450;2023-07-30T00:20:41;252.48;;;144.32;;
13368;SDS011;6753;52.520;13.450;2023-07-30T00:20:53;249.85;;;144.40;;
13368;SDS011;6753;52.520;13.450;2023-07-30T00:21:03;245.90;;;143.50;;
13368;SDS011;6753;52.520;13.450;2023-07-30T00:21:14;247.48;;;144.65;;
13368;SDS011;6753;52.520;13.450;2023-07-30T00:21:25;249.67;;;145.80;;
13368;SDS011;6753;52.520;13.450;2023-07-30T00:21:36;255.18;;;149.70;;
13368;SDS011;6753;52.520;13.450;2023-07-30T00:21:46;257.30;;;148.75;;
13368;SDS011;6753;52.520;13.450;2023-07-30T00:21:57;267.10;;;153.05;;
13368;SDS011;6753;52.520;13.450;2023-07-30T00:22:08;288.97;;;164.40;;
13368;SDS011;6753;52.520;13.450;2023-07-30T00:22:19;311.30;;;178.07;;
13368;SDS011;6753;52.520;13.450;2023-07-30T00:22:29;313.88;;;179.90;;
13368;SDS011;6753;52.520;13.450;2023-07-30T00:22:40;317.10;;;182.30;;
13368;SDS011;6753;52.520;13.450;2023-07-30T00:22:52;319.65;;;184.13;;
13368;SDS011;6753;52.520;13.450;2023-07-30T00:23:03;316.55;;;181.15;;
13368;SDS011;6753;52.520;13.450;2023-07-30T00:23:13;298.75;;;171.43;;
13368;SDS011;6753;52.520;13.450;2023-07-30T00:23:24;289.97;;;167.20;;
13368;SDS011;6753;52.520;13.450;2023-07-30T00:23:35;288.95;;;166.40;;
13368;SDS011;6753;52.520;13.450;2023-07-30T00:23:46;291.17;;;167.40;;
13368;SDS011;6753;52.520;13.450;2023-07-30T00:23:56;291.25;;;167.82;;
13368;SDS011;6753;52.520;13.450;2023-07-30T00:24:08;287.73;;;164.52;;
13368;SDS011;6753;52.520;13.450;2023-07-30T00:24:18;289.55;;;164.27;;
13368;SDS011;6753;52.520;13.450;2023-07-30T00:24:29;287.00;;;162.80;;
13368;SDS011;6753;52.520;13.450;2023-07-30T00:24:41;278.88;;;159.43;;
13368;SDS011;6753;52.520;13.450;2023-07-30T00:24:52;279.60;;;158.40;;
13368;SDS011;6753;52.520;13.450;2023-07-30T00:25:03;272.15;;;156.55;;
13368;SDS011;6753;52.520;13.450;2023-07-30T00:25:14;271.33;;;156.10;;
13368;SDS011;6753;52.520;13.450;2023-07-30T00:25:25;265.27;;;154.15;;
13368;SDS011;6753;52.520;13.450;2023-07-30T00:25:36;263.03;;;151.97;;
13368;SDS011;6753;52.520;13.450;2023-07-30T00:25:47;259.27;;;150.27;;
13368;SDS011;6753;52.520;13.450;2023-07-30T00:25:57;257.20;;;149.73;;
13368;SDS011;6753;52.520;13.450;2023-07-30T00:26:09;254.57;;;147.32;;
13368;SDS011;6753;52.520;13.450;2023-07-30T00:26:20;251.93;;;146.23;;
13368;SDS011;6753;52.520;13.450;2023-07-30T00:26:31;253.90;;;145.93;;
13368;SDS011;6753;52.520;13.450;2023-07-30T00:26:42;256.45;;;145.63;;
13368;SDS011;6753;52.520;13.450;2023-07-30T00:26:52;253.90;;;144.68;;
13368;SDS011;6753;52.520;13.450;2023-07-30T00:27:03;250.52;;;143.55;;
13368;SDS011;6753;52.520;13.450;2023-07-30T00:27:15;249.57;;;143.17;;
13368;SDS011;6753;52.520;13.450;2023-07-30T00:27:25;245.45;;;141.45;;
13368;SDS011;6753;52.520;13.450;2023-07-30T00:27:36;241.65;;;140.65;;
13368;SDS011;6753;52.520;13.450;2023-07-30T00:27:47;238.75;;;140.57;;
13368;SDS011;6753;52.520;13.450;2023-07-30T00:27:58;239.48;;;139.98;;
13368;SDS011;6753;52.520;13.450;2023-07-30T00:28:09;241.48;;;140.25;;
13368;SDS011;6753;52.520;13.450;2023-07-30T00:28:20;243.77;;;141.03;;
13368;SDS011;6753;52.520;13.450;2023-07-30T00:28:32;242.75;;;140.35;;
13368;SDS011;6753;52.520;13.450;2023-07-30T00:28:42;243.00;;;139.70;;
13368;SDS011;6753;52.520;13.450;2023-07-30T00:28:53;241.05;;;139.82;;
13368;SDS011;6753;52.520;13.450;2023-07-30T00:29:04;240.87;;;140.40;;
13368;SDS011;6753;52.520;13.450;2023-07-30T00:29:15;253.15;;;146.40;;
13368;SDS011;6753;52.520;13.450;2023-07-30T00:29:26;258.02;;;148.82;;
13368;SDS011;6753;52.520;13.450;2023-07-30T00:29:36;262.05;;;150.48;;
13368;SDS011;6753;52.520;13.450;2023-07-30T00:29:47;265.70;;;152.00;;
13368;SDS011;6753;52.520;13.450;2023-07-30T00:29:58;271.27;;;153.45;;
13368;SDS011;6753;52.520;13.450;2023-07-30T00:30:09;268.63;;;151.80;;
13368;SDS011;6753;52.520;13.450;2023-07-30T00:30:21;265.67;;;150.85;;
13368;SDS011;6753;52.520;13.450;2023-07-30T00:30:32;264.77;;;150.90;;
13368;SDS011;6753;52.520;13.450;2023-07-30T00:30:43;264.70;;;150.88;;
13368;SDS011;6753;52.520;13.450;2023-07-30T00:30:55;265.98;;;151.35;;
13368;SDS011;6753;52.520;13.450;2023-07-30T00:31:06;266.10;;;151.98;;
13368;SDS011;6753;52.520;13.450;2023-07-30T00:31:16;267.88;;;153.80;;
13368;SDS011;6753;52.520;13.450;2023-07-30T00:31:30;272.67;;;154.63;;
13368;SDS011;6753;52.520;13.450;2023-07-30T00:31:41;272.40;;;154.25;;
13368;SDS011;6753;52.520;13.450;2023-07-30T00:31:52;271.45;;;156.52;;
13368;SDS011;6753;52.520;13.450;2023-07-30T00:32:04;282.85;;;164.30;;
13368;SDS011;6753;52.520;13.450;2023-07-30T00:32:15;294.65;;;170.43;;
13368;SDS011;6753;52.520;13.450;2023-07-30T00:32:27;473.80;;;322.38;;
13368;SDS011;6753;52.520;13.450;2023-07-30T00:32:37;533.57;;;387.87;;
13368;SDS011;6753;52.520;13.450;2023-07-30T00:32:53;478.08;;;328.00;;
13368;SDS011;6753;52.520;13.450;2023-07-30T00:33:04;483.48;;;340.45;;
13368;SDS011;6753;52.520;13.450;2023-07-30T00:33:14;480.03;;;333.63;;
13368;SDS011;6753;52.520;13.450;2023-07-30T00:33:25;447.00;;;298.90;;
13368;SDS011;6753;52.520;13.450;2023-07-30T00:33:36;436.80;;;286.52;;
13368;SDS011;6753;52.520;13.450;2023-07-30T00:33:48;434.65;;;283.63;;
13368;SDS011;6753;52.520;13.450;2023-07-30T00:33:58;513.45;;;372.38;;
13368;SDS011;6753;52.520;13.450;2023-07-30T00:34:12;490.40;;;342.95;;
13368;SDS011;6753;52.520;13.450;2023-07-30T00:34:22;474.55;;;316.05;;
13368;SDS011;6753;52.520;13.450;2023-07-30T00:34:33;459.02;;;301.77;;
13368;SDS011;6753;52.520;13.450;2023-07-30T00:34:44;451.65;;;295.85;;
13368;SDS011;6753;52.520;13.450;2023-07-30T00:34:55;446.10;;;291.07;;
13368;SDS011;6753;52.520;13.450;2023-07-30T00:35:06;429.55;;;275.27;;
13368;SDS011;6753;52.520;13.450;2023-07-30T00:35:18;415.98;;;266.45;;
13368;SDS011;6753;52.520;13.450;2023-07-30T00:35:28;410.90;;;262.70;;
13368;SDS011;6753;52.520;13.450;2023-07-30T00:35:40;412.42;;;262.73;;
13368;SDS011;6753;52.520;13.450;2023-07-30T00:35:51;411.33;;;260.52;;
13368;SDS011;6753;52.520;13.450;2023-07-30T00:36:02;405.03;;;255.33;;
13368;SDS011;6753;52.520;13.450;2023-07-30T00:36:13;395.25;;;247.35;;
13368;SDS011;6753;52.520;13.450;2023-07-30T00:36:27;389.40;;;243.80;;
13368;SDS011;6753;52.520;13.450;2023-07-30T00:36:37;377.33;;;235.63;;
13368;SDS011;6753;52.520;13.450;2023-07-30T00:36:48;365.88;;;227.98;;
13368;SDS011;6753;52.520;13.450;2023-07-30T00:36:59;364.27;;;227.37;;
13368;SDS011;6753;52.520;13.450;2023-07-30T00:37:10;366.75;;;228.60;;
13368;SDS011;6753;52.520;13.450;2023-07-30T00:37:20;365.33;;;227.45;;
13368;SDS011;6753;52.520;13.450;2023-07-30T00:37:31;355.23;;;221.10;;
13368;SDS011;6753;52.520;13.450;2023-07-30T00:37:43;350.73;;;217.43;;
13368;SDS011;6753;52.520;13.450;2023-07-30T00:37:54;340.95;;;211.50;;
13368;SDS011;6753;52.520;13.450;2023-07-30T00:38:05;332.90;;;206.25;;
13368;SDS011;6753;52.520;13.450;2023-07-30T00:38:15;330.70;;;204.23;;
13368;SDS011;6753;52.520;13.450;2023-07-30T00:38:28;328.55;;;202.60;;
13368;SDS011;6753;52.520;13.450;2023-07-30T00:38:39;330.48;;;203.15;;
13368;SDS011;6753;52.520;13.450;2023-07-30T00:38:49;334.88;;;204.20;;
13368;SDS011;6753;52.520;13.450;2023-07-30T00:39:00;338.27;;;204.53;;
13368;SDS011;6753;52.520;13.450;2023-07-30T00:39:11;335.42;;;200.52;;
13368;SDS011;6753;52.520;13.450;2023-07-30T00:39:22;328.10;;;197.98;;
13368;SDS011;6753;52.520;13.450;2023-07-30T00:39:33;324.55;;;194.57;;
13368;SDS011;6753;52.520;13.450;2023-07-30T00:39:44;311.73;;;186.70;;
13368;SDS011;6753;52.520;13.450;2023-07-30T00:39:55;301.15;;;181.23;;
13368;SDS011;6753;52.520;13.450;2023-07-30T00:40:06;296.58;;;177.10;;
13368;SDS011;6753;52.520;13.450;2023-07-30T00:40:18;298.05;;;178.40;;
13368;SDS011;6753;52.520;13.450;2023-07-30T00:40:28;290.13;;;173.20;;
13368;SDS011;6753;52.520;13.450;2023-07-30T00:40:40;290.02;;;174.13;;
13368;SDS011;6753;52.520;13.450;2023-07-30T00:40:51;291.00;;;176.23;;
13368;SDS011;6753;52.520;13.450;2023-07-30T00:41:01;289.83;;;175.13;;
13368;SDS011;6753;52.520;13.450;2023-07-30T00:41:13;285.48;;;173.50;;
13368;SDS011;6753;52.520;13.450;2023-07-30T00:41:24;284.20;;;172.25;;
13368;SDS011;6753;52.520;13.450;2023-07-30T00:41:35;286.10;;;172.03;;
13368;SDS011;6753;52.520;13.450;2023-07-30T00:41:45;282.70;;;169.20;;
13368;SDS011;6753;52.520;13.450;2023-07-30T00:41:56;279.30;;;166.80;;
13368;SDS011;6753;52.520;13.450;2023-07-30T00:42:07;275.92;;;166.30;;
13368;SDS011;6753;52.520;13.450;2023-07-30T00:42:18;273.77;;;164.03;;
13368;SDS011;6753;52.520;13.450;2023-07-30T00:42:28;271.00;;;162.30;;
13368;SDS011;6753;52.520;13.450;2023-07-30T00:42:39;264.77;;;158.90;;
13368;SDS011;6753;52.520;13.450;2023-07-30T00:42:50;260.65;;;156.35;;
13368;SDS011;6753;52.520;13.450;2023-07-30T00:43:01;258.40;;;154.40;;
13368;SDS011;6753;52.520;13.450;2023-07-30T00:43:15;254.65;;;152.48;;
13368;SDS011;6753;52.520;13.450;2023-07-30T00:43:26;252.80;;;152.15;;
13368;SDS011;6753;52.520;13.450;2023-07-30T00:43:37;251.20;;;151.10;;
13368;SDS011;6753;52.520;13.450;2023-07-30T00:43:48;249.70;;;150.23;;
13368;SDS011;6753;52.520;13.450;2023-07-30T00:43:58;250.88;;;150.57;;
13368;SDS011;6753;52.520;13.450;2023-07-30T00:44:09;250.45;;;149.93;;
13368;SDS011;6753;52.520;13.450;2023-07-30T00:44:20;248.48;;;148.80;;
13368;SDS011;6753;52.520;13.450;2023-07-30T00:44:31;243.73;;;146.40;;
13368;SDS011;6753;52.520;13.450;2023-07-30T00:44:42;244.45;;;146.93;;
13368;SDS011;6753;52.520;13.450;2023-07-30T00:44:52;246.05;;;145.70;;
13368;SDS011;6753;52.520;13.450;2023-07-30T00:45:05;243.82;;;145.63;;
13368;SDS011;6753;52.520;13.450;2023-07-30T00:45:16;244.43;;;144.90;;
13368;SDS011;6753;52.520;13.450;2023-07-30T00:45:27;246.73;;;145.88;;
13368;SDS011;6753;52.520;13.450;2023-07-30T00:45:40;248.07;;;146.23;;
13368;SDS011;6753;52.520;13.450;2023-07-30T00:45:52;247.23;;;147.53;;
13368;SDS011;6753;52.520;13.450;2023-07-30T00:46:05;248.70;;;149.68;;
13368;SDS011;6753;52.520;13.450;2023-07-30T00:46:16;248.60;;;150.60;;
13368;SDS011;6753;52.520;13.450;2023-07-30T00:46:27;248.73;;;150.88;;
13368;SDS011;6753;52.520;13.450;2023-07-30T00:46:38;249.50;;;150.55;;
13368;SDS011;6753;52.520;13.450;2023-07-30T00:46:51;246.68;;;149.23;;
13368;SDS011;6753;52.520;13.450;2023-07-30T00:47:02;243.60;;;146.93;;
13368;SDS011;6753;52.520;13.450;2023-07-30T00:47:14;240.68;;;145.32;;
13368;SDS011;6753;52.520;13.450;2023-07-30T00:47:24;235.63;;;143.20;;
13368;SDS011;6753;52.520;13.450;2023-07-30T00:47:36;235.15;;;144.88;;
13368;SDS011;6753;52.520;13.450;2023-07-30T00:47:48;235.70;;;146.48;;
13368;SDS011;6753;52.520;13.450;2023-07-30T00:47:58;232.80;;;146.07;;
13368;SDS011;6753;52.520;13.450;2023-07-30T00:48:10;235.73;;;146.48;;
13368;SDS011;6753;52.520;13.450;2023-07-30T00:48:22;241.48;;;148.63;;
13368;SDS011;6753;52.520;13.450;2023-07-30T00:48:33;241.32;;;147.27;;
13368;SDS011;6753;52.520;13.450;2023-07-30T00:48:44;238.30;;;145.43;;
13368;SDS011;6753;52.520;13.450;2023-07-30T00:48:54;241.18;;;145.60;;
13368;SDS011;6753;52.520;13.450;2023-07-30T00:49:05;238.68;;;143.38;;
13368;SDS011;6753;52.520;13.450;2023-07-30T00:49:16;235.57;;;142.32;;
13368;SDS011;6753;52.520;13.450;2023-07-30T00:49:27;231.70;;;140.80;;
13368;SDS011;6753;52.520;13.450;2023-07-30T00:49:38;227.63;;;138.80;;
13368;SDS011;6753;52.520;13.450;2023-07-30T00:49:49;230.30;;;137.93;;
13368;SDS011;6753;52.520;13.450;2023-07-30T00:50:00;227.75;;;136.55;;
13368;SDS011;6753;52.520;13.450;2023-07-30T00:50:12;225.27;;;135.60;;
13368;SDS011;6753;52.520;13.450;2023-07-30T00:50:24;224.05;;;133.38;;
13368;SDS011;6753;52.520;13.450;2023-07-30T00:50:36;220.27;;;131.85;;
13368;SDS011;6753;52.520;13.450;2023-07-30T00:50:47;215.57;;;131.48;;
13368;SDS011;6753;52.520;13.450;2023-07-30T00:50:58;210.90;;;130.23;;
13368;SDS011;6753;52.520;13.450;2023-07-30T00:51:10;211.60;;;129.55;;
13368;SDS011;6753;52.520;13.450;2023-07-30T00:51:23;211.52;;;129.35;;
13368;SDS011;6753;52.520;13.450;2023-07-30T00:51:36;210.60;;;129.23;;
13368;SDS011;6753;52.520;13.450;2023-07-30T00:51:47;211.27;;;128.63;;
13368;SDS011;6753;52.520;13.450;2023-07-30T00:51:58;210.73;;;128.05;;
13368;SDS011;6753;52.520;13.450;2023-07-30T00:52:10;207.98;;;126.45;;
13368;SDS011;6753;52.520;13.450;2023-07-30T00:52:21;206.20;;;126.85;;
13368;SDS011;6753;52.520;13.450;2023-07-30T00:52:33;208.63;;;127.87;;
13368;SDS011;6753;52.520;13.450;2023-07-30T00:52:45;209.98;;;126.90;;
13368;SDS011;6753;52.520;13.450;2023-07-30T00:52:56;209.38;;;126.50;;
13368;SDS011;6753;52.520;13.450;2023-07-30T00:53:07;206.35;;;124.80;;
13368;SDS011;6753;52.520;13.450;2023-07-30T00:53:19;203.52;;;123.10;;
13368;SDS011;6753;52.520;13.450;2023-07-30T00:53:32;198.52;;;120.80;;
13368;SDS011;6753;52.520;13.450;2023-07-30T00:53:44;193.98;;;119.75;;
13368;SDS011;6753;52.520;13.450;2023-07-30T00:53:55;191.18;;;119.60;;
13368;SDS011;6753;52.520;13.450;2023-07-30T00:54:06;191.82;;;120.30;;
13368;SDS011;6753;52.520;13.450;2023-07-30T00:54:17;194.10;;;120.55;;
13368;SDS011;6753;52.520;13.450;2023-07-30T00:54:28;198.07;;;121.57;;
13368;SDS011;6753;52.520;13.450;2023-07-30T00:54:38;200.80;;;122.53;;
13368;SDS011;6753;52.520;13.450;2023-07-30T00:54:49;205.52;;;123.03;;
13368;SDS011;6753;52.520;13.450;2023-07-30T00:55:02;214.27;;;124.90;;
13368;SDS011;6753;52.520;13.450;2023-07-30T00:55:13;215.48;;;126.45;;
13368;SDS011;6753;52.520;13.450;2023-07-30T00:55:25;213.93;;;126.35;;
13368;SDS011;6753;52.520;13.450;2023-07-30T00:55:37;221.30;;;129.13;;
13368;SDS011;6753;52.520;13.450;2023-07-30T00:55:48;224.13;;;131.73;;
13368;SDS011;6753;52.520;13.450;2023-07-30T00:55:59;225.18;;;133.70;;
13368;SDS011;6753;52.520;13.450;2023-07-30T00:56:10;226.15;;;134.02;;
13368;SDS011;6753;52.520;13.450;2023-07-30T00:56:21;231.00;;;134.90;;
13368;SDS011;6753;52.520;13.450;2023-07-30T00:56:32;238.70;;;137.80;;
13368;SDS011;6753;52.520;13.450;2023-07-30T00:56:48;238.30;;;137.75;;
13368;SDS011;6753;52.520;13.450;2023-07-30T00:57:01;234.63;;;135.43;;
13368;SDS011;6753;52.520;13.450;2023-07-30T00:57:13;234.75;;;136.85;;
13368;SDS011;6753;52.520;13.450;2023-07-30T00:57:25;229.50;;;135.93;;
13368;SDS011;6753;52.520;13.450;2023-07-30T00:57:36;232.45;;;134.73;;
13368;SDS011;6753;52.520;13.450;2023-07-30T00:57:47;224.32;;;132.60;;
13368;SDS011;6753;52.520;13.450;2023-07-30T00:57:59;224.75;;;132.13;;
13368;SDS011;6753;52.520;13.450;2023-07-30T00:58:10;219.98;;;129.75;;
13368;SDS011;6753;52.520;13.450;2023-07-30T00:58:22;221.15;;;129.23;;
13368;SDS011;6753;52.520;13.450;2023-07-30T00:58:34;214.55;;;127.88;;
13368;SDS011;6753;52.520;13.450;2023-07-30T00:58:46;213.48;;;127.47;;
13368;SDS011;6753;52.520;13.450;2023-07-30T00:59:00;214.50;;;126.97;;
13368;SDS011;6753;52.520;13.450;2023-07-30T00:59:11;216.77;;;127.30;;
13368;SDS011;6753;52.520;13.450;2023-07-30T00:59:22;212.07;;;125.78;;
13368;SDS011;6753;52.520;13.450;2023-07-30T00:59:33;210.73;;;124.28;;
13368;SDS011;6753;52.520;13.450;2023-07-30T00:59:44;208.70;;;123.18;;
13368;SDS011;6753;52.520;13.450;2023-07-30T00:59:55;206.32;;;123.05;;
13368;SDS011;6753;52.520;13.450;2023-07-30T01:00:07;202.35;;;122.28;;
13368;SDS011;6753;52.520;13.450;2023-07-30T01:00:19;202.07;;;122.55;;
13368;SDS011;6753;52.520;13.450;2023-07-30T01:00:32;210.45;;;127.13;;
13368;SDS011;6753;52.520;13.450;2023-07-30T01:00:43;216.93;;;129.98;;
13368;SDS011;6753;52.520;13.450;2023-07-30T01:00:55;218.70;;;130.35;;
13368;SDS011;6753;52.520;13.450;2023-07-30T01:01:06;224.35;;;131.75;;
13368;SDS011;6753;52.520;13.450;2023-07-30T01:01:17;226.75;;;132.60;;
13368;SDS011;6753;52.520;13.450;2023-07-30T01:01:28;223.57;;;131.43;;
13368;SDS011;6753;52.520;13.450;2023-07-30T01:01:43;220.48;;;131.70;;
13368;SDS011;6753;52.520;13.450;2023-07-30T01:01:56;218.77;;;132.02;;
13368;SDS011;6753;52.520;13.450;2023-07-30T01:02:09;217.40;;;133.07;;
13368;SDS011;6753;52.520;13.450;2023-07-30T01:02:19;215.87;;;133.10;;
13368;SDS011;6753;52.520;13.450;2023-07-30T01:02:31;214.70;;;132.50;;
13368;SDS011;6753;52.520;13.450;2023-07-30T01:02:43;213.00;;;130.63;;
13368;SDS011;6753;52.520;13.450;2023-07-30T01:02:54;212.38;;;130.25;;
13368;SDS011;6753;52.520;13.450;2023-07-30T01:03:05;212.15;;;129.35;;
13368;SDS011;6753;52.520;13.450;2023-07-30T01:03:16;213.18;;;128.70;;
13368;SDS011;6753;52.520;13.450;2023-07-30T01:03:27;213.70;;;129.50;;
13368;SDS011;6753;52.520;13.450;2023-07-30T01:03:38;211.43;;;128.75;;